Soaring Guidance
Issued by NWS Reno, NV

Home | Current Version | Previous Version | Text Only | Print | Product List | Glossary On
Versions: 1 2 3 4 5 6
000
UXUS97 KREV 081311
SRGREV

SOARING FORECAST
NATIONAL WEATHER SERVICE - RENO NV
700 AM PDT MON AUG 8 2022

THIS SOARING FORECAST IS FOR THE EASTERN SIERRA AND WESTERN NEVADA
WITH SPECIFIC INDICES FOR THE GREATER RENO AREA.

THIS FORECAST IS PREPARED DAILY BY 700 AM AND IS NOT UPDATED.

FOR CURRENT FLIGHT CONDITIONS...FORECASTS...AND ADVISORIES...ACCESS
YOUR LOCAL BRIEFING OUTLET OR FLIGHT SERVICE STATION.

*******************************************************************
FORECASTED LOCAL INDICES FOR RENO:        TODAY     YESTERDAY
FORECASTED MAX TEMP AT RENO (DEG F).....     94          98
FORECASTED TRIGGER TEMPERATURE (DEG F)..     82          80
   EXCEEDED YESTERDAY BY 1055 AM PDT
FORECASTED MAXIMUM ALTITUDE (FT MSL)....  18000       17700
FORECASTED SOARING INDEX (FPM)..........   1305        1161
FORECASTED K-INDEX.........VALID 18Z....     30          30
FORECASTED K-INDEX.........VALID 00Z....     33          29
FORECASTED LIFTED INDEX....VALID 18Z....      0           1
FORECASTED LIFTED INDEX....VALID 00Z....     -1          -1

AFTERNOON WINDS ALOFT FORECAST
MSL (FT) WIND/TEMP
9000  1906/+17
10000 1806/+14
12000 1806/+09
14000 1808/+03
16000 1811/-02
18000 1818/-07
24000 1828/-18
30000 2044/-33
34000 2044/-41
39000 2136/-52

SLIDE MOUNTAIN DATA:
     DATE       TIME     TEMP  DEWPT   RH         WIND (MPH)
                        (F)   (F)           | DIR  SPEED GUST
2022-08-08    05:20      56    40     43    | 246    9   14
2022-08-08    05:00      56    41     44    | 247   12   16
2022-08-08    04:50      57    41     43    | 246    9   16
2022-08-08    04:30      57    41     44    | 239    8   14

SIERRA CREST 8700 FT DATA:
   DATE     TIME  TEMP  RH         WIND
                            DIR   SPEED   GUST
2022-08-08 0545   58   42   163      0      0
2022-08-08 0530   58   42   162      0      0
2022-08-08 0515   58   40   162      0      0
2022-08-08 0500   59   39   163      0      0

RENO TAF FORECAST:
KRNO 081120Z 0812/0912 VRB04KT P6SM FEW120
     FM081900 18009KT P6SM SCT090
     FM082200 21010KT P6SM VCSH BKN080 BKN140
      TEMPO 0823/0901 -TSRA BKN070CB
     FM090300 VRB04KT P6SM SCT080 BKN120

CARSON CITY TAF FORECAST:
KCXP 081120Z 0812/0912 VRB04KT P6SM FEW080 FEW120
     FM082100 22010KT P6SM VCSH BKN070 BKN130
      TEMPO 0821/0824 -TSRA BKN060CB
     FM090300 VRB04KT P6SM SCT070 BKN110

MINDEN TAF FORECAST:
KMEV 081120Z 0812/0912 VRB04KT P6SM FEW080 FEW120
     FM082100 22010KT P6SM VCSH BKN070 BKN130
      TEMPO 0821/0824 -TSRA BKN060CB
     FM090300 11004KT P6SM SCT070 BKN110

OUTLOOK FOR THE RENO-CARSON CITY-MINDEN AREA:
.TUESDAY...PARTLY CLOUDY IN THE MORNING, THEN MOSTLY CLOUDY WITH
SCATTERED SHOWERS AND THUNDERSTORMS IN THE AFTERNOON. HIGHS 86 TO
91. LIGHT WINDS BECOMING SOUTHEAST AROUND 10 MPH IN THE
AFTERNOON.

SUNRISE AND SUNSET
AUGUST  8 2022........SUNRISE   605 AM PDT   SUNSET   804 PM PDT
AUGUST  9 2022........SUNRISE   606 AM PDT   SUNSET   802 PM PDT


USA.gov is the U.S. government's official web portal to all federal, state and local government web resources and services.